createdAt,value
2023-05-01T00:02:08.010Z,53.40
2023-05-01T00:04:36.313Z,53.65
2023-05-01T00:07:04.167Z,53.51
2023-05-01T00:09:32.395Z,53.18
2023-05-01T00:12:00.403Z,53.13
2023-05-01T00:14:29.213Z,52.85
2023-05-01T00:16:56.926Z,52.81
2023-05-01T00:19:24.993Z,53.03
2023-05-01T00:21:53.192Z,52.73
2023-05-01T00:24:20.955Z,52.57
2023-05-01T00:26:49.876Z,52.58
2023-05-01T00:29:18.716Z,52.55
2023-05-01T00:31:48.515Z,52.65
2023-05-01T00:34:16.975Z,52.43
2023-05-01T00:36:44.650Z,52.70
2023-05-01T00:39:12.421Z,52.38
2023-05-01T00:41:40.078Z,52.76
2023-05-01T00:44:07.884Z,52.71
2023-05-01T00:46:35.985Z,52.80
2023-05-01T00:49:04.253Z,52.43
2023-05-01T00:51:32.113Z,52.66
2023-05-01T00:54:00.558Z,52.25
2023-05-01T00:56:31.540Z,52.28
2023-05-01T00:59:00.132Z,52.35
2023-05-01T01:01:29.053Z,52.74
2023-05-01T01:03:56.913Z,52.68
2023-05-01T01:06:31.810Z,52.65
2023-05-01T01:09:14.779Z,52.45
2023-05-01T01:11:59.812Z,52.50
2023-05-01T01:14:43.339Z,52.40
2023-05-01T01:17:44.904Z,52.32
2023-05-01T01:20:44.415Z,52.61
2023-05-01T01:23:47.404Z,52.69
2023-05-01T01:26:15.141Z,52.88
2023-05-01T01:29:16.955Z,52.88
2023-05-01T01:32:01.599Z,53.36
2023-05-01T01:34:50.607Z,53.41
2023-05-01T01:37:33.148Z,53.48
2023-05-01T01:40:07.011Z,53.43
2023-05-01T01:42:43.367Z,53.11
2023-05-01T01:45:26.136Z,53.22
2023-05-01T01:47:56.557Z,53.38
2023-05-01T01:50:27.541Z,53.46
2023-05-01T01:52:58.798Z,52.93
2023-05-01T01:55:30.607Z,53.05
2023-05-01T01:58:01.230Z,52.86
2023-05-01T02:00:30.034Z,52.83
2023-05-01T02:03:01.209Z,52.46
2023-05-01T02:05:30.863Z,52.52
2023-05-01T02:07:59.986Z,52.36
2023-05-01T02:10:29.288Z,52.24
2023-05-01T02:13:00.154Z,52.33
2023-05-01T02:15:30.595Z,51.70
2023-05-01T02:18:01.652Z,51.67
2023-05-01T02:20:29.841Z,51.48
2023-05-01T02:22:58.932Z,51.85
2023-05-01T02:25:30.475Z,51.70
2023-05-01T02:28:02.179Z,51.79
2023-05-01T02:30:29.844Z,51.30
2023-05-01T02:32:58.040Z,51.44
2023-05-01T02:35:25.883Z,51.37
2023-05-01T02:37:53.889Z,51.48
2023-05-01T02:40:22.123Z,51.36
2023-05-01T02:42:52.191Z,51.25
2023-05-01T02:45:25.446Z,51.06
2023-05-01T02:48:00.113Z,51.06
2023-05-01T02:50:28.642Z,51.04
2023-05-01T02:52:57.093Z,50.67
2023-05-01T02:55:48.926Z,50.80
2023-05-01T02:58:18.695Z,51.00
2023-05-01T03:00:50.078Z,50.88
2023-05-01T03:03:19.008Z,50.82
2023-05-01T03:05:48.120Z,50.99
2023-05-01T03:08:16.098Z,51.30
2023-05-01T03:10:44.496Z,51.11
2023-05-01T03:13:12.580Z,51.32
2023-05-01T03:15:40.438Z,51.28
2023-05-01T03:18:08.415Z,50.99
2023-05-01T03:20:36.143Z,51.10
2023-05-01T03:23:04.983Z,50.80
2023-05-01T03:25:33.701Z,51.01
2023-05-01T03:28:02.395Z,50.96
2023-05-01T03:30:30.069Z,51.21
2023-05-01T03:32:58.032Z,51.17
2023-05-01T03:35:31.152Z,51.36
2023-05-01T03:37:59.317Z,50.84
2023-05-01T03:40:46.013Z,51.00
2023-05-01T03:43:32.333Z,50.72
2023-05-01T03:46:04.008Z,51.12
2023-05-01T03:48:32.344Z,51.23
2023-05-01T03:51:00.213Z,50.93
2023-05-01T03:53:30.930Z,50.92
2023-05-01T03:55:59.258Z,51.11
2023-05-01T03:58:28.710Z,50.63
2023-05-01T04:01:00.509Z,50.74
2023-05-01T04:03:31.260Z,50.95
2023-05-01T04:05:59.589Z,50.84
2023-05-01T04:08:27.575Z,50.96
2023-05-01T04:10:55.398Z,51.11
2023-05-01T04:13:23.138Z,51.22
2023-05-01T04:15:51.360Z,51.10
2023-05-01T04:18:19.255Z,51.30
2023-05-01T04:20:47.144Z,51.35
2023-05-01T04:23:16.142Z,51.37
2023-05-01T04:25:44.603Z,51.72
2023-05-01T04:28:16.761Z,51.41
2023-05-01T04:30:44.462Z,51.45
2023-05-01T04:33:12.355Z,51.37
2023-05-01T04:35:41.761Z,51.63
2023-05-01T04:38:12.972Z,51.44
2023-05-01T04:40:42.342Z,51.79
2023-05-01T04:43:12.158Z,51.67
2023-05-01T04:45:40.629Z,51.31
2023-05-01T04:48:08.583Z,51.58
2023-05-01T04:50:37.814Z,51.71
2023-05-01T04:53:05.433Z,51.85
2023-05-01T04:55:36.072Z,51.66
2023-05-01T04:58:08.259Z,51.51
2023-05-01T05:00:37.398Z,51.65
2023-05-01T05:03:08.906Z,51.61
2023-05-01T05:05:37.221Z,51.73
2023-05-01T05:08:07.531Z,51.47
2023-05-01T05:10:37.044Z,51.77
2023-05-01T05:13:28.360Z,51.70
2023-05-01T05:16:05.655Z,51.56
2023-05-01T05:18:33.526Z,51.79
2023-05-01T05:21:05.531Z,51.69
2023-05-01T05:23:33.557Z,51.72
2023-05-01T05:26:01.885Z,51.48
2023-05-01T05:28:33.432Z,51.53
2023-05-01T05:31:03.267Z,51.37
2023-05-01T05:33:31.073Z,51.22
2023-05-01T05:36:00.086Z,50.58
2023-05-01T05:38:33.441Z,50.77
2023-05-01T05:41:02.166Z,50.83
2023-05-01T05:43:32.547Z,50.45
2023-05-01T05:46:02.454Z,50.49
2023-05-01T05:48:33.311Z,50.51
2023-05-01T05:51:01.495Z,50.76
2023-05-01T05:53:29.494Z,50.87
2023-05-01T05:55:57.459Z,50.98
2023-05-01T05:58:25.858Z,50.76
2023-05-01T06:00:55.781Z,51.06
2023-05-01T06:03:24.011Z,50.95
2023-05-01T06:05:57.553Z,50.96
2023-05-01T06:08:25.445Z,50.98
2023-05-01T06:10:53.436Z,51.22
2023-05-01T06:13:21.988Z,51.16
2023-05-01T06:15:50.765Z,50.74
2023-05-01T06:18:18.656Z,50.65
2023-05-01T06:20:47.518Z,50.56
2023-05-01T06:23:15.736Z,50.77
2023-05-01T06:26:03.834Z,50.64
2023-05-01T06:28:31.781Z,50.57
2023-05-01T06:30:59.664Z,50.65
2023-05-01T06:33:34.666Z,50.38
2023-05-01T06:36:12.341Z,50.49
2023-05-01T06:38:41.612Z,50.27
2023-05-01T06:41:11.028Z,50.52
2023-05-01T06:43:39.044Z,50.20
2023-05-01T06:46:07.005Z,50.56
2023-05-01T06:48:34.809Z,50.78
2023-05-01T06:51:02.593Z,50.44
2023-05-01T06:53:30.478Z,50.56
2023-05-01T06:55:59.022Z,51.02
2023-05-01T06:58:27.606Z,50.96
2023-05-01T07:00:55.477Z,50.83
2023-05-01T07:03:27.726Z,50.71
2023-05-01T07:05:56.222Z,50.40
2023-05-01T07:08:24.521Z,50.32
2023-05-01T07:10:52.219Z,50.54
2023-05-01T07:13:20.157Z,50.71
2023-05-01T07:15:49.018Z,50.80
2023-05-01T07:18:17.458Z,50.97
2023-05-01T07:20:45.842Z,50.92
2023-05-01T07:23:13.518Z,51.05
2023-05-01T07:25:45.349Z,50.55
2023-05-01T07:28:13.423Z,50.60
2023-05-01T07:30:41.310Z,50.69
2023-05-01T07:33:08.999Z,50.50
2023-05-01T07:35:36.855Z,50.80
2023-05-01T07:38:05.141Z,50.65
2023-05-01T07:40:35.250Z,50.93
2023-05-01T07:43:03.126Z,51.05
2023-05-01T07:45:31.358Z,50.85
2023-05-01T07:47:59.947Z,50.21
2023-05-01T07:50:27.778Z,50.38
2023-05-01T07:52:56.118Z,49.57
2023-05-01T07:55:24.972Z,50.87
2023-05-01T07:57:52.686Z,50.31
2023-05-01T08:00:20.715Z,50.24
2023-05-01T08:02:49.349Z,50.13
2023-05-01T08:05:17.215Z,50.04
2023-05-01T08:07:45.624Z,50.49
2023-05-01T08:10:13.484Z,50.01
2023-05-01T08:12:41.340Z,50.27
2023-05-01T08:15:09.463Z,49.96
2023-05-01T08:17:37.428Z,50.42
2023-05-01T08:20:05.779Z,50.60
2023-05-01T08:22:33.917Z,50.67
2023-05-01T08:25:01.687Z,50.58
2023-05-01T08:27:29.385Z,50.53
2023-05-01T08:29:57.215Z,50.56
2023-05-01T08:32:28.206Z,50.88
2023-05-01T08:34:56.049Z,51.10
2023-05-01T08:37:23.908Z,50.78
2023-05-01T08:39:51.862Z,51.02
2023-05-01T08:42:20.296Z,50.70
2023-05-01T08:44:49.512Z,50.58
2023-05-01T08:47:18.506Z,50.53
2023-05-01T08:49:47.424Z,50.91
2023-05-01T08:52:15.790Z,51.43
2023-05-01T08:54:45.081Z,51.67
2023-05-01T08:57:13.614Z,52.54
2023-05-01T08:59:41.478Z,52.56
2023-05-01T09:02:10.573Z,52.88
2023-05-01T09:04:40.756Z,53.32
2023-05-01T09:07:09.996Z,51.91
2023-05-01T09:09:37.905Z,51.83
2023-05-01T09:12:26.063Z,52.17
2023-05-01T09:14:56.282Z,51.40
2023-05-01T09:17:24.809Z,51.56
2023-05-01T09:19:53.629Z,51.19
2023-05-01T09:22:21.726Z,51.50
2023-05-01T09:24:49.789Z,51.69
2023-05-01T09:27:17.576Z,51.55
2023-05-01T09:29:47.753Z,51.81
2023-05-01T09:32:24.958Z,51.82
2023-05-01T09:34:55.016Z,51.18
2023-05-01T09:37:31.602Z,51.78
2023-05-01T09:40:07.020Z,51.42
2023-05-01T09:42:37.505Z,51.53
2023-05-01T09:45:12.185Z,51.36
2023-05-01T09:47:40.912Z,51.33
2023-05-01T09:50:09.194Z,50.57
2023-05-01T09:52:37.354Z,51.05
2023-05-01T09:55:16.432Z,51.63
2023-05-01T09:57:46.602Z,51.42
2023-05-01T10:00:16.284Z,51.02
2023-05-01T10:02:46.821Z,50.48
2023-05-01T10:05:15.768Z,50.29
2023-05-01T10:07:58.954Z,50.02
2023-05-01T10:10:26.951Z,50.04
2023-05-01T10:12:55.260Z,50.94
2023-05-01T10:15:26.518Z,50.01
2023-05-01T10:17:55.723Z,50.03
2023-05-01T10:20:26.534Z,49.54
2023-05-01T10:22:54.562Z,49.23
2023-05-01T10:25:25.239Z,49.18
2023-05-01T10:27:53.817Z,49.22
2023-05-01T10:30:22.411Z,49.21
2023-05-01T10:32:50.236Z,49.01
2023-05-01T10:35:34.726Z,48.75
2023-05-01T10:38:06.685Z,48.79
2023-05-01T10:40:43.750Z,49.01
2023-05-01T10:43:17.662Z,48.23
2023-05-01T10:45:48.007Z,48.71
2023-05-01T10:48:40.927Z,48.17
2023-05-01T10:51:17.277Z,48.22
2023-05-01T10:53:47.087Z,48.27
2023-05-01T10:56:30.350Z,47.59
2023-05-01T10:59:07.577Z,48.07
2023-05-01T11:01:41.370Z,47.98
2023-05-01T11:04:27.393Z,48.00
2023-05-01T11:07:11.413Z,47.92
2023-05-01T11:09:57.734Z,48.34
2023-05-01T11:12:48.626Z,47.85
2023-05-01T11:15:26.560Z,48.44
2023-05-01T11:17:54.811Z,48.17
2023-05-01T11:20:25.598Z,48.56
2023-05-01T11:22:58.048Z,48.47
2023-05-01T11:25:33.221Z,48.30
2023-05-01T11:28:02.999Z,48.25
2023-05-01T11:30:37.992Z,48.22
2023-05-01T11:33:10.140Z,48.40
2023-05-01T11:35:39.476Z,48.60
2023-05-01T11:38:18.761Z,48.27
2023-05-01T11:40:55.688Z,48.75
2023-05-01T11:43:23.801Z,49.47
2023-05-01T11:45:55.004Z,49.34
2023-05-01T11:48:23.037Z,49.45
2023-05-01T11:50:51.283Z,49.56
2023-05-01T11:53:19.312Z,49.90
2023-05-01T11:55:47.384Z,50.00
2023-05-01T11:58:15.138Z,50.10
2023-05-01T12:00:43.999Z,49.79
2023-05-01T12:03:14.574Z,50.27
2023-05-01T12:05:45.489Z,50.42
2023-05-01T12:08:21.317Z,50.32
2023-05-01T12:10:56.532Z,50.22
2023-05-01T12:13:25.383Z,50.16
2023-05-01T12:15:55.341Z,50.28
2023-05-01T12:18:23.490Z,50.52
2023-05-01T12:20:53.857Z,50.22
2023-05-01T12:23:36.321Z,50.30
2023-05-01T12:26:22.446Z,50.44
2023-05-01T12:29:10.581Z,50.32
2023-05-01T12:31:47.680Z,51.21
2023-05-01T12:34:15.694Z,50.42
2023-05-01T12:36:53.462Z,50.18
2023-05-01T12:39:23.637Z,50.04
2023-05-01T12:41:51.823Z,49.94
2023-05-01T12:44:27.187Z,50.11
2023-05-01T12:47:02.154Z,50.13
2023-05-01T12:49:32.768Z,49.53
2023-05-01T12:52:01.641Z,49.28
2023-05-01T12:54:33.273Z,49.34
2023-05-01T12:57:18.173Z,49.10
2023-05-01T13:00:03.167Z,48.38
2023-05-01T13:02:33.123Z,48.78
2023-05-01T13:05:11.901Z,49.15
2023-05-01T13:07:48.862Z,48.99
2023-05-01T13:10:29.876Z,48.77
2023-05-01T13:12:58.557Z,48.87
2023-05-01T13:15:26.518Z,49.04
2023-05-01T13:17:54.372Z,48.56
2023-05-01T13:20:32.028Z,49.33
2023-05-01T13:22:59.819Z,49.23
2023-05-01T13:25:27.821Z,49.03
2023-05-01T13:27:55.647Z,48.98
2023-05-01T13:30:34.435Z,48.22
2023-05-01T13:33:04.053Z,48.05
2023-05-01T13:35:39.925Z,48.21
2023-05-01T13:38:12.800Z,48.29
2023-05-01T13:40:41.580Z,48.22
2023-05-01T13:43:17.227Z,48.57
2023-05-01T13:45:47.499Z,48.25
2023-05-01T13:48:17.665Z,48.04
2023-05-01T13:50:45.584Z,47.97
2023-05-01T13:53:14.805Z,47.69
2023-05-01T13:55:43.902Z,47.58
2023-05-01T13:58:11.727Z,47.98
2023-05-01T14:00:40.214Z,48.19
2023-05-01T14:03:10.873Z,48.53
2023-05-01T14:05:40.288Z,48.36
2023-05-01T14:08:08.903Z,48.42
2023-05-01T14:10:36.768Z,48.46
2023-05-01T14:13:05.566Z,48.18
2023-05-01T14:15:37.139Z,48.24
2023-05-01T14:18:06.938Z,48.05
2023-05-01T14:20:34.673Z,47.96
2023-05-01T14:23:02.645Z,47.86
2023-05-01T14:25:34.142Z,47.85
2023-05-01T14:28:08.084Z,48.37
2023-05-01T14:30:38.380Z,48.28
2023-05-01T14:33:15.585Z,48.07
2023-05-01T14:35:51.123Z,48.18
2023-05-01T14:38:20.304Z,48.16
2023-05-01T14:40:48.504Z,48.31
2023-05-01T14:43:22.296Z,48.54
2023-05-01T14:45:50.315Z,48.95
2023-05-01T14:48:23.235Z,49.17
2023-05-01T14:50:51.984Z,48.67
2023-05-01T14:53:19.896Z,48.80
2023-05-01T14:55:51.281Z,48.45
2023-05-01T14:58:19.985Z,48.90
2023-05-01T15:00:47.641Z,49.37
2023-05-01T15:03:15.642Z,49.39
2023-05-01T15:05:44.643Z,49.22
2023-05-01T15:08:12.468Z,49.49
2023-05-01T15:10:40.421Z,48.94
2023-05-01T15:13:09.284Z,48.75
2023-05-01T15:15:37.018Z,49.07
2023-05-01T15:18:04.842Z,48.98
2023-05-01T15:20:33.448Z,49.03
2023-05-01T15:23:01.227Z,48.91
2023-05-01T15:25:29.088Z,49.21
2023-05-01T15:27:57.411Z,49.58
2023-05-01T15:30:25.356Z,49.27
2023-05-01T15:32:55.853Z,49.23
2023-05-01T15:35:24.012Z,49.13
2023-05-01T15:37:52.093Z,49.36
2023-05-01T15:40:20.476Z,49.11
2023-05-01T15:42:48.328Z,48.91
2023-05-01T15:45:16.161Z,49.29
2023-05-01T15:47:44.159Z,48.86
2023-05-01T15:50:12.310Z,48.79
2023-05-01T15:52:40.398Z,48.84
2023-05-01T15:55:08.698Z,48.93
2023-05-01T15:57:36.475Z,49.08
2023-05-01T16:00:04.935Z,49.42
2023-05-01T16:02:33.783Z,48.90
2023-05-01T16:05:01.741Z,48.98
2023-05-01T16:07:29.988Z,49.75
2023-05-01T16:09:58.548Z,49.55
2023-05-01T16:12:29.810Z,49.47
2023-05-01T16:14:57.734Z,50.31
2023-05-01T16:17:25.699Z,51.12
2023-05-01T16:19:55.352Z,51.06
2023-05-01T16:22:23.238Z,50.16
2023-05-01T16:24:51.096Z,49.79
2023-05-01T16:27:19.159Z,49.36
2023-05-01T16:29:47.022Z,49.37
2023-05-01T16:32:17.024Z,49.42
2023-05-01T16:34:45.261Z,49.34
2023-05-01T16:37:15.736Z,49.42
2023-05-01T16:39:43.722Z,49.52
2023-05-01T16:42:15.128Z,49.67
2023-05-01T16:44:42.730Z,49.71
2023-05-01T16:47:12.663Z,49.84
2023-05-01T16:49:42.406Z,49.87
2023-05-01T16:52:14.232Z,49.92
2023-05-01T16:54:42.161Z,50.43
2023-05-01T16:57:10.286Z,50.47
2023-05-01T16:59:38.295Z,50.41
2023-05-01T17:02:07.088Z,49.98
2023-05-01T17:04:35.108Z,50.18
2023-05-01T17:07:03.073Z,49.87
2023-05-01T17:09:31.463Z,49.95
2023-05-01T17:12:00.942Z,49.86
2023-05-01T17:14:30.577Z,49.91
2023-05-01T17:17:01.444Z,50.12
2023-05-01T17:19:30.473Z,49.69
2023-05-01T17:21:58.614Z,50.09
2023-05-01T17:24:27.240Z,50.17
2023-05-01T17:26:55.721Z,49.92
2023-05-01T17:29:24.192Z,49.78
2023-05-01T17:31:52.066Z,49.81
2023-05-01T17:34:19.937Z,49.60
2023-05-01T17:36:47.816Z,49.48
2023-05-01T17:39:16.098Z,49.52
2023-05-01T17:41:43.919Z,49.55
2023-05-01T17:44:11.707Z,49.66
2023-05-01T17:46:40.460Z,49.52
2023-05-01T17:49:11.044Z,49.79
2023-05-01T17:51:38.769Z,49.74
2023-05-01T17:54:06.631Z,49.73
2023-05-01T17:56:34.430Z,49.70
2023-05-01T17:59:02.178Z,49.48
2023-05-01T18:01:30.792Z,49.66
2023-05-01T18:03:58.753Z,49.83
2023-05-01T18:06:26.583Z,49.30
2023-05-01T18:08:54.449Z,49.76
2023-05-01T18:11:22.142Z,49.40
2023-05-01T18:13:49.868Z,49.74
2023-05-01T18:16:18.986Z,49.70
2023-05-01T18:18:48.452Z,49.91
2023-05-01T18:21:17.074Z,50.16
2023-05-01T18:23:46.472Z,50.04
2023-05-01T18:26:16.812Z,49.94
2023-05-01T18:28:44.633Z,49.87
2023-05-01T18:31:13.781Z,50.00
2023-05-01T18:33:41.523Z,50.21
2023-05-01T18:36:10.864Z,49.83
2023-05-01T18:38:38.817Z,50.01
2023-05-01T18:41:07.856Z,50.25
2023-05-01T18:43:36.091Z,50.37
2023-05-01T18:46:03.868Z,50.00
2023-05-01T18:48:31.624Z,50.33
2023-05-01T18:51:08.507Z,50.51
2023-05-01T18:53:37.669Z,50.25
2023-05-01T18:56:06.681Z,50.54
2023-05-01T18:58:37.776Z,50.88
2023-05-01T19:01:06.819Z,50.82
2023-05-01T19:03:35.206Z,50.67
2023-05-01T19:06:04.736Z,51.08
2023-05-01T19:08:33.088Z,50.96
2023-05-01T19:11:02.943Z,51.01
2023-05-01T19:13:34.750Z,51.25
2023-05-01T19:16:07.889Z,51.48
2023-05-01T19:18:38.582Z,51.25
2023-05-01T19:21:07.764Z,51.10
2023-05-01T19:23:38.034Z,51.22
2023-05-01T19:26:06.827Z,51.13
2023-05-01T19:28:37.560Z,50.84
2023-05-01T19:31:07.997Z,50.95
2023-05-01T19:33:36.921Z,50.97
2023-05-01T19:36:06.055Z,50.91
2023-05-01T19:38:34.303Z,50.76
2023-05-01T19:41:02.430Z,50.88
2023-05-01T19:43:30.704Z,50.96
2023-05-01T19:46:00.150Z,50.78
2023-05-01T19:48:28.754Z,51.15
2023-05-01T19:50:56.634Z,51.31
2023-05-01T19:53:24.752Z,51.35
2023-05-01T19:55:52.433Z,51.15
2023-05-01T19:58:20.520Z,51.23
2023-05-01T20:00:48.488Z,51.39
2023-05-01T20:03:16.869Z,51.35
2023-05-01T20:05:44.684Z,51.12
2023-05-01T20:08:13.018Z,51.06
2023-05-01T20:10:40.837Z,51.30
2023-05-01T20:13:10.780Z,51.12
2023-05-01T20:15:40.210Z,51.07
2023-05-01T20:18:08.269Z,50.79
2023-05-01T20:20:36.362Z,50.57
2023-05-01T20:23:12.054Z,50.61
2023-05-01T20:25:39.978Z,50.62
2023-05-01T20:28:09.714Z,50.91
2023-05-01T20:30:40.401Z,50.73
2023-05-01T20:33:08.405Z,50.81
2023-05-01T20:35:36.317Z,50.87
2023-05-01T20:38:06.902Z,50.46
2023-05-01T20:40:37.061Z,50.75
2023-05-01T20:43:04.809Z,50.53
2023-05-01T20:45:32.935Z,50.68
2023-05-01T20:48:02.049Z,50.47
2023-05-01T20:50:29.997Z,51.30
2023-05-01T20:52:57.788Z,50.93
2023-05-01T20:55:26.690Z,50.45
2023-05-01T20:57:54.511Z,50.47
2023-05-01T21:00:22.266Z,50.33
2023-05-01T21:02:52.015Z,50.56
2023-05-01T21:05:19.991Z,50.59
2023-05-01T21:07:48.232Z,50.23
2023-05-01T21:10:16.767Z,50.43
2023-05-01T21:12:44.762Z,50.43
2023-05-01T21:15:12.608Z,50.43
2023-05-01T21:17:41.197Z,50.34
2023-05-01T21:20:19.231Z,50.17
2023-05-01T21:22:48.852Z,50.40
2023-05-01T21:25:27.023Z,50.63
2023-05-01T21:27:55.798Z,50.76
2023-05-01T21:30:33.170Z,50.79
2023-05-01T21:33:02.669Z,50.92
2023-05-01T21:35:31.490Z,50.99
2023-05-01T21:38:00.139Z,51.04
2023-05-01T21:40:28.372Z,50.95
2023-05-01T21:42:56.632Z,51.19
2023-05-01T21:45:24.798Z,50.99
2023-05-01T21:47:52.967Z,50.81
2023-05-01T21:50:21.603Z,51.06
2023-05-01T21:52:50.198Z,51.09
2023-05-01T21:55:19.582Z,51.18
2023-05-01T21:57:47.635Z,51.24
2023-05-01T22:00:15.982Z,51.15
2023-05-01T22:02:45.814Z,51.29
2023-05-01T22:05:15.125Z,51.01
2023-05-01T22:07:45.208Z,51.18
2023-05-01T22:10:18.045Z,51.42
2023-05-01T22:12:49.593Z,51.47
2023-05-01T22:15:17.789Z,51.12
2023-05-01T22:17:45.702Z,51.29
2023-05-01T22:20:13.587Z,51.28
2023-05-01T22:22:43.248Z,51.02
2023-05-01T22:25:12.359Z,51.42
2023-05-01T22:27:40.840Z,51.11
2023-05-01T22:30:08.949Z,51.21
2023-05-01T22:32:36.818Z,51.22
2023-05-01T22:35:04.932Z,51.43
2023-05-01T22:37:32.934Z,51.32
2023-05-01T22:40:00.906Z,51.27
2023-05-01T22:42:28.996Z,51.44
2023-05-01T22:44:56.816Z,51.30
2023-05-01T22:47:24.593Z,51.24
2023-05-01T22:49:52.345Z,51.08
2023-05-01T22:52:20.000Z,51.10
2023-05-01T22:54:47.635Z,50.95
2023-05-01T22:57:15.649Z,51.11
2023-05-01T22:59:44.114Z,51.02
2023-05-01T23:02:16.928Z,51.04
2023-05-01T23:04:44.628Z,51.17
2023-05-01T23:07:15.898Z,51.38
2023-05-01T23:09:43.551Z,51.29
2023-05-01T23:12:19.157Z,51.25
2023-05-01T23:14:47.230Z,51.06
2023-05-01T23:17:15.795Z,51.08
2023-05-01T23:19:43.827Z,51.00
2023-05-01T23:22:13.202Z,51.00
2023-05-01T23:24:49.430Z,50.92
2023-05-01T23:27:19.367Z,51.14
2023-05-01T23:29:58.756Z,51.11
2023-05-01T23:32:29.402Z,51.08
2023-05-01T23:35:13.246Z,51.18
2023-05-01T23:37:41.232Z,51.25
2023-05-01T23:40:09.634Z,50.75
2023-05-01T23:42:38.461Z,50.64
2023-05-01T23:45:08.042Z,50.96
2023-05-01T23:47:37.290Z,50.78
2023-05-01T23:50:06.164Z,50.54
2023-05-01T23:52:34.284Z,50.76
2023-05-01T23:55:02.168Z,50.47
2023-05-01T23:57:29.885Z,50.51
2023-05-01T23:59:57.878Z,50.60
